Arkdale, Wisconsin
Current Conditions -  °F | °C
As of 5:58 AM on Sunday 21 Dec 2014 (Local Time) from KVOK Reporting Station
Haze Haze  
Wind Chill: 24°   Ceiling: 600
Heat Index: 30°   Visibility: 5mi
Dew Point: 30°   Wind: 7mph
Humidity: 100%   Direction: 130°SE
Pressure: 30.08"   Gusts: NA
Location:  44.03°N, 89.89°W
Report Text: KVOK 211158Z AUTO 13006KT 5SM R27/5000FT BR OVC006 M01/M01 A3008 RMK AO2 SLP200 60000 T10091009 11009 21014 57017
Loading
Personal Weather Stations






























Interactive Weather Map New forecast layout! Learn more

10-Day Weather Forecast

Advertisements
Track Severe Weather on mobile